createdAt,value
2022-11-17T00:03:08.983Z,99.0
2022-11-17T00:17:08.996Z,99.0
2022-11-17T00:31:09.085Z,99.0
2022-11-17T00:45:09.002Z,99.0
2022-11-17T00:59:09.291Z,99.0
2022-11-17T01:13:09.084Z,99.0
2022-11-17T01:27:09.101Z,99.0
2022-11-17T01:41:09.092Z,99.0
2022-11-17T01:55:09.095Z,99.0
2022-11-17T02:09:09.105Z,99.0
2022-11-17T02:23:09.119Z,99.0
2022-11-17T02:37:09.179Z,99.0
2022-11-17T02:51:09.153Z,99.0
2022-11-17T03:05:09.201Z,99.0
2022-11-17T03:19:09.210Z,99.0
2022-11-17T03:33:09.185Z,99.0
2022-11-17T03:47:09.266Z,99.0
2022-11-17T04:01:09.223Z,99.0
2022-11-17T04:15:09.332Z,99.0
2022-11-17T04:29:09.325Z,99.0
2022-11-17T04:43:09.390Z,99.0
2022-11-17T04:57:09.394Z,99.0
2022-11-17T05:11:09.413Z,99.0
2022-11-17T05:25:09.533Z,99.0
2022-11-17T05:39:09.499Z,99.0
2022-11-17T05:53:09.531Z,99.0
2022-11-17T06:07:09.621Z,99.0
2022-11-17T06:22:12.494Z,99.0
2022-11-17T06:37:09.701Z,99.0
2022-11-17T06:52:09.805Z,99.0
2022-11-17T07:07:09.895Z,99.0
2022-11-17T07:22:09.937Z,99.0
2022-11-17T07:37:09.928Z,99.0
2022-11-17T07:52:10.021Z,99.0
2022-11-17T08:07:10.105Z,99.0
2022-11-17T08:22:10.104Z,99.0
2022-11-17T08:37:10.082Z,99.0
2022-11-17T08:52:10.122Z,99.0
2022-11-17T09:07:10.159Z,99.0
2022-11-17T09:22:10.170Z,99.0
2022-11-17T09:37:10.227Z,99.0
2022-11-17T09:52:10.297Z,96.0
2022-11-17T10:07:10.360Z,94.0
2022-11-17T10:22:10.374Z,91.0
2022-11-17T10:37:10.431Z,87.0
2022-11-17T10:52:10.499Z,86.0
2022-11-17T11:07:10.606Z,80.0
2022-11-17T11:22:10.658Z,80.0
2022-11-17T11:37:10.785Z,80.0
2022-11-17T11:52:10.859Z,78.0
2022-11-17T12:07:10.867Z,74.0
2022-11-17T12:22:10.850Z,79.0
2022-11-17T12:37:10.849Z,79.0
2022-11-17T12:52:10.864Z,76.0
2022-11-17T13:07:10.947Z,75.0
2022-11-17T13:22:10.874Z,78.0
2022-11-17T13:37:10.925Z,80.0
2022-11-17T13:53:10.901Z,81.0
2022-11-17T14:08:10.898Z,79.0
2022-11-17T14:23:10.909Z,83.0
2022-11-17T14:38:10.899Z,80.0
2022-11-17T14:53:10.897Z,80.0
2022-11-17T15:08:10.924Z,82.0
2022-11-17T15:23:10.932Z,87.0
2022-11-17T15:38:10.968Z,90.0
2022-11-17T15:55:11.079Z,93.0
2022-11-17T16:10:11.106Z,95.0
2022-11-17T16:25:11.146Z,96.0
2022-11-17T16:39:11.164Z,96.0
2022-11-17T16:53:11.147Z,97.0
2022-11-17T17:07:11.191Z,97.0
2022-11-17T17:21:11.146Z,97.0
2022-11-17T17:35:11.201Z,97.0
2022-11-17T17:49:11.208Z,97.0
2022-11-17T18:03:11.360Z,97.0
2022-11-17T18:17:11.429Z,97.0
2022-11-17T18:31:11.747Z,97.0
2022-11-17T18:45:11.589Z,97.0
2022-11-17T18:59:11.917Z,97.0
2022-11-17T19:13:11.411Z,97.0
2022-11-17T19:27:11.422Z,97.0
2022-11-17T19:41:11.393Z,96.0
2022-11-17T19:55:11.413Z,96.0
2022-11-17T20:09:11.426Z,96.0
2022-11-17T20:23:11.402Z,96.0
2022-11-17T20:37:11.419Z,97.0
2022-11-17T20:51:11.461Z,97.0
2022-11-17T21:05:11.401Z,97.0
2022-11-17T21:19:11.461Z,98.0
2022-11-17T21:33:11.398Z,98.0
2022-11-17T21:47:11.420Z,98.0
2022-11-17T22:01:11.428Z,98.0
2022-11-17T22:15:11.855Z,98.0
2022-11-17T22:29:11.432Z,98.0
2022-11-17T22:43:14.799Z,99.0
2022-11-17T22:57:11.447Z,98.0
2022-11-17T23:11:35.284Z,98.0
2022-11-17T23:25:11.620Z,98.0
2022-11-17T23:39:11.560Z,97.0
2022-11-17T23:53:11.557Z,97.0
